Time;durP1;ratioP1;P1;durP2;ratioP2;P2;SDS_P1;SDS_P2;PMS_P1;PMS_P2;Temp;Humidity;BMP_temperature;BMP_pressure;BME280_temperature;BME280_humidity;BME280_pressure;Samples;Min_cycle;Max_cycle;Signal;HPM_P1;HPM_P2
2023/07/28 00:01:56;;;;;;;9.15;7.10;;;;;;;17.06;100.00;100400.63;5090852;28;20044;-71
2023/07/28 00:04:21;;;;;;;9.10;6.45;;;;;;;17.05;100.00;100393.44;5090789;28;20023;-71
2023/07/28 00:06:47;;;;;;;7.97;5.88;;;;;;;17.06;100.00;100398.75;5099374;28;20102;-71
2023/07/28 00:09:12;;;;;;;6.75;5.93;;;;;;;17.05;100.00;100397.03;5110428;28;20047;-71
2023/07/28 00:11:37;;;;;;;8.88;6.13;;;;;;;17.07;100.00;100394.13;5096090;28;20190;-71
2023/07/28 00:14:03;;;;;;;7.47;6.22;;;;;;;17.06;100.00;100397.88;5090775;28;20073;-71
2023/07/28 00:16:28;;;;;;;8.23;6.22;;;;;;;17.05;100.00;100390.69;5089210;28;20378;-71
2023/07/28 00:18:53;;;;;;;7.85;5.88;;;;;;;17.05;100.00;100393.44;5109609;27;20051;-71
2023/07/28 00:21:19;;;;;;;6.97;5.60;;;;;;;17.06;100.00;100396.00;5088443;28;20469;-71
2023/07/28 00:23:44;;;;;;;8.50;6.68;;;;;;;17.06;100.00;100395.13;5089960;28;20035;-71
2023/07/28 00:26:09;;;;;;;9.63;5.93;;;;;;;17.08;100.00;100398.59;5090490;28;20089;-71
2023/07/28 00:28:35;;;;;;;7.03;5.85;;;;;;;17.07;100.00;100396.88;5090923;28;20036;-71
2023/07/28 00:31:00;;;;;;;8.75;6.95;;;;;;;17.08;100.00;100393.09;5088837;28;20059;-71
2023/07/28 00:33:25;;;;;;;9.65;7.38;;;;;;;17.06;100.00;100393.25;5071943;28;20127;-71
2023/07/28 00:35:51;;;;;;;9.88;6.75;;;;;;;17.05;100.00;100388.78;5089645;28;20036;-71
2023/07/28 00:38:16;;;;;;;10.30;7.10;;;;;;;17.06;100.00;100385.00;5088371;28;20396;-71
2023/07/28 00:40:42;;;;;;;10.27;6.78;;;;;;;17.04;100.00;100383.47;5088446;28;20032;-71
2023/07/28 00:43:07;;;;;;;8.80;7.18;;;;;;;17.04;100.00;100388.97;5090784;28;20028;-71
2023/07/28 00:45:33;;;;;;;8.63;6.93;;;;;;;17.03;100.00;100376.25;5089966;28;20092;-71
2023/07/28 00:47:59;;;;;;;8.73;7.30;;;;;;;17.03;100.00;100376.25;5089457;28;20051;-71
2023/07/28 00:50:25;;;;;;;9.57;7.50;;;;;;;17.03;100.00;100379.84;5088715;28;20016;-71
2023/07/28 00:52:51;;;;;;;10.35;7.03;;;;;;;17.02;100.00;100378.13;5104578;28;20123;-71
2023/07/28 00:55:16;;;;;;;11.13;7.90;;;;;;;17.03;100.00;100373.50;5109840;28;20118;-71
2023/07/28 00:57:42;;;;;;;9.90;7.53;;;;;;;17.04;100.00;100378.81;5103235;28;20449;-71
2023/07/28 01:00:08;;;;;;;12.20;7.70;;;;;;;17.04;100.00;100384.31;5089121;28;20032;-71
2023/07/28 01:02:34;;;;;;;11.18;7.40;;;;;;;17.03;100.00;100384.50;5088043;28;20028;-71
2023/07/28 01:05:00;;;;;;;10.15;6.95;;;;;;;17.04;100.00;100392.56;5094536;28;20044;-71
2023/07/28 01:07:36;;;;;;;11.50;7.32;;;;;;;17.04;100.00;100388.97;5093970;28;20032;-71
2023/07/28 01:10:06;;;;;;;9.95;7.55;;;;;;;17.05;100.00;100390.69;5087393;28;20038;-71
2023/07/28 01:12:32;;;;;;;9.63;7.65;;;;;;;17.05;100.00;100396.19;5088502;28;20420;-70
2023/07/28 01:14:57;;;;;;;11.10;8.25;;;;;;;17.06;100.00;100395.13;5087772;28;20023;-71
2023/07/28 01:17:23;;;;;;;10.75;7.65;;;;;;;17.05;100.00;100397.03;5087115;28;20044;-70
2023/07/28 01:19:50;;;;;;;10.73;8.13;;;;;;;17.04;100.00;100398.06;5089700;28;20469;-71
2023/07/28 01:22:46;;;;;;;10.75;7.75;;;;;;;17.06;100.00;100392.41;5094048;28;20131;-71
2023/07/28 01:25:22;;;;;;;10.88;7.43;;;;;;;17.07;100.00;100403.25;5088212;27;20031;-70
2023/07/28 01:27:49;;;;;;;11.70;8.07;;;;;;;17.07;100.00;100397.75;5092125;28;20036;-70
2023/07/28 01:30:15;;;;;;;11.70;8.23;;;;;;;17.07;100.00;100394.13;5107066;28;20055;-71
2023/07/28 01:32:40;;;;;;;11.73;7.60;;;;;;;17.05;100.00;100397.03;5089775;28;20489;-70
2023/07/28 01:35:07;;;;;;;15.30;8.23;;;;;;;17.03;100.00;100399.09;5093976;23;20401;-91
2023/07/28 01:37:32;;;;;;;11.35;8.13;;;;;;;17.05;100.00;100398.91;5113756;22;20381;-70
2023/07/28 01:39:58;;;;;;;12.10;8.15;;;;;;;17.07;100.00;100407.88;5045613;28;20056;-71
2023/07/28 01:42:23;;;;;;;12.20;7.57;;;;;;;17.07;100.00;100408.75;5060591;28;20029;-70
2023/07/28 01:44:50;;;;;;;13.75;8.10;;;;;;;17.07;100.00;100414.25;5067336;28;20075;-70
2023/07/28 01:47:15;;;;;;;14.15;9.15;;;;;;;17.08;100.00;100404.09;5051970;28;20043;-70
2023/07/28 01:49:41;;;;;;;13.80;7.85;;;;;;;17.09;100.00;100408.56;5047215;28;20415;-70
2023/07/28 01:52:06;;;;;;;11.30;7.38;;;;;;;17.11;100.00;100413.88;5049497;28;20041;-70
2023/07/28 01:54:31;;;;;;;13.18;8.27;;;;;;;17.10;100.00;100407.53;5048255;28;20107;-70
2023/07/28 01:56:57;;;;;;;13.15;7.95;;;;;;;17.10;100.00;100404.78;5046268;28;20350;-70
2023/07/28 01:59:22;;;;;;;11.23;7.18;;;;;;;17.11;100.00;100405.66;5063753;28;20503;-70
2023/07/28 02:01:47;;;;;;;12.38;8.40;;;;;;;17.11;100.00;100402.91;5053737;28;20086;-70
2023/07/28 02:04:13;;;;;;;11.38;8.35;;;;;;;17.10;100.00;100402.03;5048407;28;20036;-70
2023/07/28 02:06:38;;;;;;;12.55;8.32;;;;;;;17.10;100.00;100407.53;5049274;28;20047;-70
2023/07/28 02:09:04;;;;;;;11.73;8.00;;;;;;;17.08;100.00;100404.97;5047689;28;20087;-70
2023/07/28 02:11:29;;;;;;;10.15;7.45;;;;;;;17.10;100.00;100402.03;5046097;28;20033;-70
2023/07/28 02:13:55;;;;;;;12.18;8.45;;;;;;;17.11;100.00;100400.16;5046856;28;20116;-70
2023/07/28 02:16:20;;;;;;;10.23;7.75;;;;;;;17.08;100.00;100398.59;5066142;28;20036;-70
2023/07/28 02:18:45;;;;;;;11.98;8.43;;;;;;;17.10;100.00;100399.28;5066356;28;20043;-69
2023/07/28 02:21:11;;;;;;;14.15;8.25;;;;;;;17.09;100.00;100397.56;5065410;28;20020;-70
2023/07/28 02:23:36;;;;;;;13.80;8.82;;;;;;;17.10;100.00;100396.53;5059466;28;20041;-70
2023/07/28 02:26:02;;;;;;;16.02;9.02;;;;;;;17.08;100.00;100402.22;5067262;28;20119;-70
2023/07/28 02:28:28;;;;;;;16.55;8.95;;;;;;;17.09;100.00;100403.06;5067945;28;20074;-70
2023/07/28 02:30:54;;;;;;;13.95;9.05;;;;;;;17.08;100.00;100399.47;5066539;28;20511;-70
2023/07/28 02:33:20;;;;;;;14.50;8.80;;;;;;;17.08;100.00;100401.34;5045160;28;20085;-70
2023/07/28 02:35:45;;;;;;;13.77;9.27;;;;;;;17.09;100.00;100405.81;5055598;28;20459;-70
2023/07/28 02:38:10;;;;;;;15.20;9.70;;;;;;;17.09;100.00;100405.81;5047359;28;20048;-69
2023/07/28 02:40:36;;;;;;;16.65;9.68;;;;;;;17.07;100.00;100400.50;5045382;28;20069;-70
2023/07/28 02:43:01;;;;;;;16.20;9.35;;;;;;;17.07;100.00;100406.00;5045864;28;20090;-70
2023/07/28 02:45:27;;;;;;;16.67;9.55;;;;;;;17.08;100.00;100404.97;5047542;28;20029;-70
2023/07/28 02:47:52;;;;;;;17.48;9.80;;;;;;;17.09;100.00;100411.31;5062772;28;20087;-70
2023/07/28 02:50:17;;;;;;;21.15;9.98;;;;;;;17.09;100.00;100408.56;5063068;28;20028;-70
2023/07/28 02:52:43;;;;;;;18.63;9.48;;;;;;;17.10;100.00;100407.53;5061307;28;20039;-71
2023/07/28 02:55:09;;;;;;;18.00;10.48;;;;;;;17.09;100.00;100408.56;5062619;28;20477;-71
2023/07/28 02:57:34;;;;;;;20.33;10.90;;;;;;;17.09;100.00;100412.16;5060915;28;20041;-71
2023/07/28 03:00:00;;;;;;;19.35;11.00;;;;;;;17.10;100.00;100424.03;5046242;28;20092;-71
2023/07/28 03:02:25;;;;;;;18.27;10.77;;;;;;;17.08;100.00;100420.59;5046057;28;20033;-70
2023/07/28 03:04:53;;;;;;;20.75;11.77;;;;;;;17.07;100.00;100422.47;5045999;28;20029;-70
2023/07/28 03:07:38;;;;;;;23.15;11.05;;;;;;;17.08;100.00;100418.69;5025259;28;20045;-70
2023/07/28 03:10:07;;;;;;;22.85;11.82;;;;;;;17.07;100.00;100427.13;5045099;28;20033;-70
2023/07/28 03:12:35;;;;;;;24.05;11.90;;;;;;;17.08;100.00;100424.19;5045333;28;20032;-70
2023/07/28 03:15:00;;;;;;;19.55;12.50;;;;;;;17.09;100.00;100417.66;5045849;28;20529;-71
2023/07/28 03:17:26;;;;;;;22.80;12.40;;;;;;;17.09;100.00;100420.41;5063378;28;20536;-70
2023/07/28 03:19:51;;;;;;;23.80;12.82;;;;;;;17.11;100.00;100419.38;5047431;28;20025;-70
2023/07/28 03:22:16;;;;;;;22.15;11.98;;;;;;;17.12;100.00;100423.88;5057094;28;20180;-71
2023/07/28 03:24:42;;;;;;;18.85;10.98;;;;;;;17.11;100.00;100427.63;5062007;28;20037;-70
2023/07/28 03:27:08;;;;;;;24.33;12.32;;;;;;;17.13;100.00;100433.84;5046761;28;20124;-70
2023/07/28 03:29:33;;;;;;;19.20;10.88;;;;;;;17.12;100.00;100430.25;5047053;28;20032;-71
2023/07/28 03:31:59;;;;;;;18.27;11.32;;;;;;;17.13;100.00;100437.44;5045711;28;20041;-71
2023/07/28 03:34:24;;;;;;;31.75;12.88;;;;;;;17.15;100.00;100434.53;5046989;28;20099;-70
2023/07/28 03:36:51;;;;;;;22.70;12.38;;;;;;;17.14;100.00;100430.91;5045421;28;20083;-71
2023/07/28 03:39:16;;;;;;;22.88;12.27;;;;;;;17.14;100.00;100436.41;5061321;28;20052;-70
2023/07/28 03:41:45;;;;;;;26.88;12.55;;;;;;;17.15;100.00;100443.63;5045074;28;20536;-71
2023/07/28 03:44:11;;;;;;;21.25;12.15;;;;;;;17.15;100.00;100443.63;5047483;28;20060;-70
2023/07/28 03:46:36;;;;;;;24.50;12.07;;;;;;;17.16;100.00;100450.88;5045413;28;20025;-70
2023/07/28 03:49:01;;;;;;;31.08;13.30;;;;;;;17.16;100.00;100450.88;5045689;28;20367;-70
2023/07/28 03:51:27;;;;;;;27.75;13.77;;;;;;;17.15;100.00;100445.53;5061395;28;20051;-70
2023/07/28 03:53:53;;;;;;;27.27;12.88;;;;;;;17.15;100.00;100451.03;5046168;28;20468;-70
2023/07/28 03:56:18;;;;;;;27.50;12.85;;;;;;;17.15;100.00;100457.38;5061259;28;20044;-70
2023/07/28 03:58:45;;;;;;;21.48;12.82;;;;;;;17.15;100.00;100462.88;5045562;28;20025;-71
2023/07/28 04:01:10;;;;;;;24.38;13.30;;;;;;;17.15;100.00;100459.28;5055576;28;20456;-70
2023/07/28 04:03:36;;;;;;;33.08;14.38;;;;;;;17.15;100.00;100462.88;5046307;28;20071;-70
2023/07/28 04:06:06;;;;;;;24.67;13.23;;;;;;;17.13;100.00;100458.59;5061456;28;20102;-70
2023/07/28 04:08:32;;;;;;;25.95;12.90;;;;;;;17.13;100.00;100464.09;5044666;28;20029;-70
2023/07/28 04:10:57;;;;;;;22.30;12.82;;;;;;;17.13;100.00;100453.94;5046114;28;20508;-71
2023/07/28 04:13:22;;;;;;;25.42;13.40;;;;;;;17.13;100.00;100455.84;5028447;28;20039;-70
2023/07/28 04:15:48;;;;;;;27.80;13.98;;;;;;;17.12;100.00;100465.97;5045352;28;20049;-70
2023/07/28 04:18:13;;;;;;;28.50;13.80;;;;;;;17.12;100.00;100454.97;5047362;28;20242;-71
2023/07/28 04:20:39;;;;;;;29.48;13.55;;;;;;;17.14;100.00;100457.56;5045619;28;20458;-70
2023/07/28 04:23:04;;;;;;;28.20;13.73;;;;;;;17.12;100.00;100456.88;5045390;28;20590;-71
2023/07/28 04:25:34;;;;;;;27.27;14.35;;;;;;;17.14;100.00;100454.81;5045320;28;20033;-71
2023/07/28 04:27:59;;;;;;;27.23;13.40;;;;;;;17.15;100.00;100451.88;5044409;28;20052;-71
2023/07/28 04:30:25;;;;;;;26.88;12.40;;;;;;;17.14;100.00;100454.81;5061939;28;20221;-70
2023/07/28 04:32:51;;;;;;;31.33;13.15;;;;;;;17.15;100.00;100453.78;5061577;28;20033;-71
2023/07/28 04:35:19;;;;;;;27.15;13.98;;;;;;;17.15;100.00;100460.13;5045169;28;20033;-70
2023/07/28 04:38:05;;;;;;;26.20;13.80;;;;;;;17.15;100.00;100457.38;5036061;28;20053;-70
2023/07/28 04:40:51;;;;;;;26.55;13.02;;;;;;;17.15;100.00;100456.53;5048073;28;20053;-70
2023/07/28 04:43:21;;;;;;;29.73;13.90;;;;;;;17.16;100.00;100453.63;5048540;28;20477;-70
2023/07/28 04:45:51;;;;;;;25.38;12.80;;;;;;;17.18;100.00;100447.97;5060046;28;20094;-70
2023/07/28 04:48:19;;;;;;;28.52;14.27;;;;;;;17.20;100.00;100444.00;5048382;28;20033;-70
2023/07/28 04:50:45;;;;;;;24.55;13.15;;;;;;;17.28;100.00;100445.94;5050109;28;20028;-70
2023/07/28 04:53:28;;;;;;;27.42;12.98;;;;;;;17.34;100.00;100448.88;5049145;28;20110;-70
2023/07/28 04:56:00;;;;;;;26.80;13.38;;;;;;;17.39;100.00;100444.78;5047753;28;20421;-70
2023/07/28 04:58:26;;;;;;;23.80;13.95;;;;;;;17.39;100.00;100453.03;5048364;28;20061;-70
2023/07/28 05:00:53;;;;;;;24.65;13.07;;;;;;;17.39;100.00;100458.53;5061631;28;20029;-70
2023/07/28 05:03:18;;;;;;;24.35;12.98;;;;;;;17.38;100.00;100443.94;5047993;28;20155;-71
2023/07/28 05:05:50;;;;;;;26.67;14.00;;;;;;;17.43;100.00;100455.28;5067782;28;20465;-71
2023/07/28 05:08:16;;;;;;;22.90;13.98;;;;;;;17.47;100.00;100451.19;5063813;28;20039;-70
2023/07/28 05:10:44;;;;;;;24.25;13.30;;;;;;;17.49;100.00;100460.16;5064438;28;20024;-70
2023/07/28 05:13:10;;;;;;;26.02;13.38;;;;;;;17.53;100.00;100467.03;5047036;28;20025;-70
2023/07/28 05:15:37;;;;;;;24.00;13.32;;;;;;;17.54;100.00;100462.41;5064621;28;20090;-70
2023/07/28 05:18:04;;;;;;;24.48;13.48;;;;;;;17.55;100.00;100472.38;5049132;28;20497;-71
2023/07/28 05:20:46;;;;;;;29.23;14.10;;;;;;;17.53;100.00;100471.66;5061826;28;20097;-71
2023/07/28 05:23:14;;;;;;;23.42;12.80;;;;;;;17.53;100.00;100479.91;5062758;28;20024;-70
2023/07/28 05:25:40;;;;;;;24.58;13.38;;;;;;;17.52;100.00;100476.31;5062551;28;20095;-70
2023/07/28 05:28:06;;;;;;;30.77;13.55;;;;;;;17.53;100.00;100479.91;5064754;28;20040;-71
2023/07/28 05:30:33;;;;;;;29.63;13.07;;;;;;;17.55;100.00;100484.22;5065693;28;20399;-70
2023/07/28 05:32:59;;;;;;;27.88;14.18;;;;;;;17.58;100.00;100489.41;5066624;28;20040;-70
2023/07/28 05:35:31;;;;;;;30.90;14.05;;;;;;;17.63;100.00;100488.06;5067512;28;20032;-71
2023/07/28 05:37:56;;;;;;;24.25;14.07;;;;;;;17.65;100.00;100486.84;5061935;28;20049;-71
2023/07/28 05:40:22;;;;;;;26.50;13.88;;;;;;;17.65;100.00;100497.00;5060681;28;20043;-71
2023/07/28 05:42:47;;;;;;;24.45;13.38;;;;;;;17.66;100.00;100501.47;5051177;28;20497;-71
2023/07/28 05:45:12;;;;;;;21.98;12.80;;;;;;;17.66;100.00;100498.72;5063478;28;20068;-71
2023/07/28 05:47:38;;;;;;;28.08;14.70;;;;;;;17.64;100.00;100495.28;5062509;28;20032;-71
2023/07/28 05:50:05;;;;;;;26.80;14.27;;;;;;;17.65;100.00;100499.75;5062488;28;20031;-71
2023/07/28 05:52:30;;;;;;;27.40;14.55;;;;;;;17.67;100.00;100508.69;5052391;28;20116;-71
2023/07/28 05:54:56;;;;;;;27.88;14.95;;;;;;;17.66;100.00;100507.81;5062247;28;20131;-71
2023/07/28 05:57:21;;;;;;;30.98;16.02;;;;;;;17.70;100.00;100511.97;5064679;28;20033;-71
2023/07/28 05:59:47;;;;;;;27.02;14.95;;;;;;;17.74;100.00;100507.91;5066727;28;20036;-71
2023/07/28 06:02:12;;;;;;;30.25;15.98;;;;;;;17.77;100.00;100509.47;5066030;28;20020;-71
2023/07/28 06:04:45;;;;;;;32.38;16.52;;;;;;;17.78;100.00;100505.69;5062787;28;20044;-71
2023/07/28 06:07:10;;;;;;;38.42;19.25;;;;;;;17.81;100.00;100499.84;5050865;28;20033;-71
2023/07/28 06:09:36;;;;;;;42.42;20.38;;;;;;;17.87;100.00;100504.69;5061918;28;20057;-71
2023/07/28 06:12:02;;;;;;;36.25;20.42;;;;;;;17.94;100.00;100502.97;5065561;28;20040;-71
2023/07/28 06:14:27;;;;;;;41.03;21.73;;;;;;;17.99;100.00;100506.09;5066510;28;20135;-71
2023/07/28 06:16:54;;;;;;;40.50;22.08;;;;;;;18.04;100.00;100511.09;5053702;28;20078;-71
2023/07/28 06:19:23;;;;;;;40.95;23.58;;;;;;;18.06;100.00;100509.91;5061506;28;20409;-71
2023/07/28 06:21:51;;;;;;;49.78;24.33;;;;;;;18.07;100.00;100510.75;5063046;28;20375;-71
2023/07/28 06:24:17;;;;;;;46.75;25.20;;;;;;;18.08;100.00;100510.59;5061791;28;20021;-71
2023/07/28 06:26:42;;;;;;;48.67;25.40;;;;;;;18.09;100.00;100512.34;5062541;28;20123;-71
2023/07/28 06:29:07;;;;;;;52.88;27.27;;;;;;;18.12;100.00;100518.53;5045736;28;20033;-71
2023/07/28 06:31:33;;;;;;;57.28;26.38;;;;;;;18.15;100.00;100516.31;5079439;28;20029;-71
2023/07/28 06:33:59;;;;;;;51.50;25.48;;;;;;;18.19;100.00;100523.19;5063102;28;20415;-71
2023/07/28 06:36:25;;;;;;;54.53;27.02;;;;;;;18.22;100.00;100527.50;5066613;28;20039;-71
2023/07/28 06:38:52;;;;;;;52.22;25.30;;;;;;;18.24;100.00;100523.53;5064457;28;20052;-71
2023/07/28 06:41:17;;;;;;;53.53;25.05;;;;;;;18.31;100.00;100534.72;5064341;28;20110;-71
2023/07/28 06:43:44;;;;;;;45.97;24.70;;;;;;;18.33;100.00;100533.56;5066372;28;20040;-71
2023/07/28 06:46:10;;;;;;;53.38;24.85;;;;;;;18.35;100.00;100536.13;5050286;28;20457;-71
2023/07/28 06:48:35;;;;;;;45.35;24.30;;;;;;;18.33;100.00;100538.19;5045407;28;20036;-71
2023/07/28 06:51:01;;;;;;;49.03;24.35;;;;;;;18.33;100.00;100535.44;5045202;28;20175;-71
2023/07/28 06:53:27;;;;;;;45.25;22.95;;;;;;;18.32;100.00;100540.06;5046242;28;20068;-71
2023/07/28 06:55:52;;;;;;;48.13;22.33;;;;;;;18.35;100.00;100536.13;5062040;28;20021;-71
2023/07/28 06:58:18;;;;;;;50.97;22.67;;;;;;;18.43;100.00;100549.06;5046300;28;20076;-71
2023/07/28 07:00:43;;;;;;;46.80;20.85;;;;;;;18.44;100.00;100545.28;5047756;28;20025;-71
2023/07/28 07:03:10;;;;;;;39.03;21.33;;;;;;;18.44;100.00;100551.63;5045955;28;20401;-71
2023/07/28 07:05:35;;;;;;;46.30;20.27;;;;;;;18.46;100.00;100543.19;5045427;28;20524;-71
2023/07/28 07:08:01;;;;;;;38.33;19.45;;;;;;;18.49;100.00;100542.88;5045753;28;20025;-71
2023/07/28 07:10:26;;;;;;;42.42;20.42;;;;;;;18.51;100.00;100551.81;5052052;28;20037;-71
2023/07/28 07:12:52;;;;;;;38.80;20.83;;;;;;;18.54;100.00;100557.84;5043050;28;20033;-71
2023/07/28 07:15:17;;;;;;;43.42;21.02;;;;;;;18.53;100.00;100558.03;5051622;28;20031;-71
2023/07/28 07:17:43;;;;;;;41.65;19.02;;;;;;;18.55;100.00;100564.22;5057620;28;20048;-71
2023/07/28 07:20:10;;;;;;;40.10;21.00;;;;;;;18.56;100.00;100560.47;5062750;28;20178;-71
2023/07/28 07:22:35;;;;;;;33.85;18.90;;;;;;;18.57;100.00;100562.16;5056376;28;20527;-71
2023/07/28 07:25:01;;;;;;;32.95;18.95;;;;;;;18.61;100.00;100571.81;5059816;28;20055;-71
2023/07/28 07:27:26;;;;;;;32.90;19.45;;;;;;;18.61;100.00;100571.81;5063842;28;20037;-71
2023/07/28 07:29:52;;;;;;;37.28;19.00;;;;;;;18.60;100.00;100567.31;5053881;28;20037;-71
2023/07/28 07:32:17;;;;;;;27.27;17.02;;;;;;;18.65;100.00;100573.19;5054104;28;20068;-71
2023/07/28 07:34:44;;;;;;;32.53;17.65;;;;;;;18.69;100.00;100577.34;5059138;28;20507;-71
2023/07/28 07:37:09;;;;;;;29.27;16.33;;;;;;;18.71;100.00;100582.72;5053771;28;20036;-71
2023/07/28 07:39:36;;;;;;;32.63;17.27;;;;;;;18.69;100.00;100580.13;5064774;28;20049;-71
2023/07/28 07:42:01;;;;;;;30.02;16.63;;;;;;;18.71;100.00;100585.47;5063889;28;20060;-71
2023/07/28 07:44:27;;;;;;;27.15;16.27;;;;;;;18.72;100.00;100578.94;5063012;28;20091;-71
2023/07/28 07:46:52;;;;;;;30.83;15.35;;;;;;;18.70;100.00;100580.97;5058520;28;20049;-71
2023/07/28 07:49:17;;;;;;;25.75;15.52;;;;;;;18.68;100.00;100581.13;5045326;28;20049;-71
2023/07/28 07:51:43;;;;;;;24.52;14.73;;;;;;;18.65;100.00;100580.59;5048702;28;20029;-71
2023/07/28 07:54:08;;;;;;;27.42;14.82;;;;;;;18.66;100.00;100588.72;5054548;28;20133;-71
2023/07/28 07:56:34;;;;;;;23.75;13.70;;;;;;;18.66;100.00;100587.84;5064000;28;20044;-71
2023/07/28 07:58:59;;;;;;;21.92;13.52;;;;;;;18.61;100.00;100585.59;5059082;28;20052;-71
2023/07/28 08:01:24;;;;;;;24.00;14.10;;;;;;;18.63;100.00;100593.69;5063240;28;20440;-71
2023/07/28 08:03:50;;;;;;;24.92;13.90;;;;;;;18.66;100.00;100596.13;5060186;28;20497;-71
2023/07/28 08:06:15;;;;;;;30.83;14.48;;;;;;;18.64;100.00;100590.75;5061608;28;20111;-71
2023/07/28 08:08:41;;;;;;;20.00;12.85;;;;;;;18.68;100.00;100592.13;5064686;28;20068;-71
2023/07/28 08:11:07;;;;;;;23.27;13.77;;;;;;;18.67;100.00;100604.19;5062725;28;20037;-71
2023/07/28 08:13:33;;;;;;;20.23;12.98;;;;;;;18.69;100.00;100598.53;5064091;28;20039;-71
2023/07/28 08:15:58;;;;;;;23.42;13.50;;;;;;;18.74;100.00;100607.16;5063086;28;20044;-71
2023/07/28 08:18:23;;;;;;;25.42;13.05;;;;;;;18.79;100.00;100597.38;5067920;28;20021;-72
2023/07/28 08:20:49;;;;;;;23.42;13.90;;;;;;;18.80;100.00;100598.22;5053000;28;20670;-71
2023/07/28 08:23:14;;;;;;;23.33;14.15;;;;;;;18.81;100.00;100602.72;5050827;28;20474;-71
2023/07/28 08:25:39;;;;;;;22.77;14.32;;;;;;;18.84;100.00;100603.22;5053144;28;20087;-71
2023/07/28 08:28:05;;;;;;;20.95;13.40;;;;;;;18.88;100.00;100609.25;5066348;28;20044;-71
2023/07/28 08:30:31;;;;;;;19.67;13.13;;;;;;;18.91;100.00;100610.81;5066821;28;20062;-71
2023/07/28 08:32:57;;;;;;;22.42;13.73;;;;;;;18.94;100.00;100608.59;5069103;28;20032;-71
2023/07/28 08:35:22;;;;;;;20.17;12.73;;;;;;;18.98;100.00;100611.84;5067350;28;20059;-71
2023/07/28 08:37:48;;;;;;;21.25;13.93;;;;;;;19.03;100.00;100606.69;5067028;28;20021;-71
2023/07/28 08:40:14;;;;;;;20.75;13.68;;;;;;;19.07;100.00;100611.69;5063697;28;20058;-71
2023/07/28 08:42:40;;;;;;;23.05;14.00;;;;;;;19.10;100.00;100613.22;5062514;28;20044;-71
2023/07/28 08:45:08;;;;;;;20.08;13.88;;;;;;;19.14;100.00;100609.09;5068294;28;20040;-71
2023/07/28 08:47:34;;;;;;;19.17;13.73;;;;;;;19.18;100.00;100610.47;5064823;28;20062;-71
2023/07/28 08:49:59;;;;;;;19.20;13.82;;;;;;;19.30;100.00;100614.59;5063439;28;20039;-71
2023/07/28 08:52:25;;;;;;;22.98;14.55;;;;;;;19.48;100.00;100614.41;5062523;28;20036;-71
2023/07/28 08:54:51;;;;;;;18.77;12.55;;;;;;;19.64;100.00;100620.97;5067660;28;20574;-71
2023/07/28 08:57:16;;;;;;;16.15;12.43;;;;;;;19.78;100.00;100614.75;5066780;28;20127;-71
2023/07/28 08:59:47;;;;;;;15.43;12.00;;;;;;;19.91;100.00;100623.34;5068951;28;20107;-71
2023/07/28 09:02:15;;;;;;;14.77;12.02;;;;;;;19.97;100.00;100619.84;5060150;28;20044;-71
2023/07/28 09:04:41;;;;;;;14.15;11.60;;;;;;;20.00;100.00;100618.63;5068955;28;20095;-72
2023/07/28 09:07:07;;;;;;;16.33;11.10;;;;;;;20.07;100.00;100620.50;5058938;28;20048;-71
2023/07/28 09:09:33;;;;;;;13.13;9.93;;;;;;;20.12;100.00;100629.09;5067963;28;20027;-71
2023/07/28 09:11:59;;;;;;;14.02;11.25;;;;;;;20.21;100.00;100623.56;5066537;28;20045;-71
2023/07/28 09:14:25;;;;;;;10.90;9.50;;;;;;;20.24;100.00;100628.75;5068403;28;20116;-71
2023/07/28 09:16:51;;;;;;;12.60;10.18;;;;;;;20.29;100.00;100623.53;5057744;28;20484;-71
2023/07/28 09:19:17;;;;;;;15.38;9.60;;;;;;;20.39;100.00;100626.94;5068040;28;20036;-71
2023/07/28 09:21:46;;;;;;;13.85;9.88;;;;;;;20.47;100.00;100626.94;5056719;28;20440;-71
2023/07/28 09:24:13;;;;;;;11.20;9.40;;;;;;;20.71;100.00;100627.81;5063735;28;20039;-71
2023/07/28 09:26:42;;;;;;;11.77;9.85;;;;;;;20.93;100.00;100629.72;5066278;28;20043;-71
2023/07/28 09:29:15;;;;;;;11.98;10.13;;;;;;;21.15;100.00;100630.78;5066654;28;20143;-71
2023/07/28 09:31:44;;;;;;;12.40;10.20;;;;;;;21.30;100.00;100628.91;5069004;28;20131;-71
2023/07/28 09:34:11;;;;;;;13.00;10.57;;;;;;;21.45;99.50;100633.66;5058917;28;20512;-71
2023/07/28 09:36:40;;;;;;;11.05;8.70;;;;;;;21.53;97.32;100630.81;5056802;28;20032;-71
2023/07/28 09:39:09;;;;;;;12.52;8.90;;;;;;;21.76;100.00;100623.31;5060932;28;20056;-71
2023/07/28 09:41:37;;;;;;;11.45;8.35;;;;;;;21.96;96.61;100626.38;5053125;28;20700;-71
2023/07/28 09:44:04;;;;;;;10.50;8.25;;;;;;;22.22;96.62;100627.84;5051927;28;20021;-71
2023/07/28 09:46:33;;;;;;;8.50;7.55;;;;;;;22.41;94.04;100628.09;5050170;28;20029;-71
2023/07/28 09:49:03;;;;;;;12.25;9.82;;;;;;;22.56;91.54;100630.84;5067529;28;20133;-71
2023/07/28 09:51:31;;;;;;;10.13;9.13;;;;;;;22.61;91.03;100628.31;5054376;28;20036;-71
2023/07/28 09:54:12;;;;;;;11.25;8.07;;;;;;;22.84;93.34;100625.41;5057730;28;20317;-71
2023/07/28 09:56:38;;;;;;;10.18;8.38;;;;;;;23.02;92.01;100633.31;5066244;28;20059;-71
2023/07/28 09:59:11;;;;;;;12.20;7.20;;;;;;;23.05;86.08;100634.84;5058722;28;20033;-71
2023/07/28 10:01:38;;;;;;;8.82;7.05;;;;;;;23.09;85.84;100628.69;5048618;28;20033;-71
2023/07/28 10:04:04;;;;;;;7.80;7.00;;;;;;;23.15;88.76;100629.81;5061405;28;20044;-71
2023/07/28 10:06:30;;;;;;;9.20;6.88;;;;;;;23.26;88.78;100636.75;5062175;28;20028;-71
2023/07/28 10:08:56;;;;;;;8.23;6.93;;;;;;;23.39;86.93;100626.63;5066363;28;20098;-71
2023/07/28 10:11:22;;;;;;;9.63;5.95;;;;;;;23.55;81.50;100639.38;5061354;28;20456;-71
2023/07/28 10:13:47;;;;;;;6.25;5.65;;;;;;;23.51;82.96;100646.38;5067207;28;20028;-71
2023/07/28 10:16:16;;;;;;;7.03;6.10;;;;;;;23.60;84.37;100631.28;5063322;28;20032;-71
2023/07/28 10:18:50;;;;;;;9.45;6.57;;;;;;;23.57;81.42;100645.56;5064452;28;20524;-71
2023/07/28 10:21:17;;;;;;;7.40;6.13;;;;;;;23.79;82.37;100631.66;5057507;28;20048;-71
2023/07/28 10:23:43;;;;;;;7.65;5.90;;;;;;;23.91;77.13;100643.91;5064523;28;20056;-72
2023/07/28 10:26:09;;;;;;;6.32;5.75;;;;;;;24.01;82.59;100641.63;5059078;28;20067;-71
2023/07/28 10:28:41;;;;;;;6.47;5.80;;;;;;;24.16;83.10;100641.53;5066364;28;20087;-71
2023/07/28 10:31:10;;;;;;;6.88;6.25;;;;;;;24.18;78.39;100645.81;5066135;28;20093;-71
2023/07/28 10:33:38;;;;;;;5.75;5.10;;;;;;;24.34;79.12;100640.97;5065419;28;20508;-71
2023/07/28 10:36:22;;;;;;;6.38;5.78;;;;;;;24.53;80.42;100642.16;5065232;28;20483;-71
2023/07/28 10:39:12;;;;;;;6.43;5.82;;;;;;;24.70;80.52;100640.72;5057643;28;20080;-71
2023/07/28 10:41:38;;;;;;;7.15;5.07;;;;;;;24.88;77.43;100640.16;5053522;28;20485;-71
2023/07/28 10:44:03;;;;;;;5.85;5.25;;;;;;;25.06;78.42;100634.84;5065242;28;20040;-71
2023/07/28 10:46:29;;;;;;;6.20;5.22;;;;;;;25.16;77.75;100640.03;5062346;28;20146;-71
2023/07/28 10:48:54;;;;;;;6.15;4.82;;;;;;;25.24;74.86;100636.19;5063911;28;20032;-71
2023/07/28 10:51:25;;;;;;;5.65;4.60;;;;;;;25.33;76.39;100632.97;5063595;28;20060;-71
2023/07/28 10:53:57;;;;;;;3.60;3.30;;;;;;;25.19;74.72;100642.41;5055560;28;20048;-72
2023/07/28 10:56:23;;;;;;;5.15;2.83;;;;;;;25.19;73.33;100636.81;5062868;28;20036;-71
2023/07/28 10:59:04;;;;;;;5.20;3.40;;;;;;;25.36;77.85;100634.47;5063318;28;20051;-72
2023/07/28 11:01:38;;;;;;;4.45;3.00;;;;;;;25.72;75.20;100627.63;5062267;28;20392;-71
2023/07/28 11:04:10;;;;;;;3.85;3.17;;;;;;;25.82;73.76;100626.13;5056868;28;20523;-71
2023/07/28 11:06:37;;;;;;;4.13;3.10;;;;;;;26.14;73.77;100632.72;5063693;28;20519;-72